sensor_id;sensor_type;location;lat;lon;timestamp;temperature;humidity
9881;DHT22;4979;51.014;6.678;2022-12-18T00:02:15;-3.60;99.90
9881;DHT22;4979;51.014;6.678;2022-12-18T00:04:40;-3.50;99.90
9881;DHT22;4979;51.014;6.678;2022-12-18T00:07:06;-3.60;99.90
9881;DHT22;4979;51.014;6.678;2022-12-18T00:09:32;-3.60;99.90
9881;DHT22;4979;51.014;6.678;2022-12-18T00:11:57;-3.70;99.90
9881;DHT22;4979;51.014;6.678;2022-12-18T00:14:23;-3.70;99.90
9881;DHT22;4979;51.014;6.678;2022-12-18T00:16:48;-3.70;99.90
9881;DHT22;4979;51.014;6.678;2022-12-18T00:19:14;-3.70;99.90
9881;DHT22;4979;51.014;6.678;2022-12-18T00:21:40;-3.70;99.90
9881;DHT22;4979;51.014;6.678;2022-12-18T00:24:06;-3.80;99.90
9881;DHT22;4979;51.014;6.678;2022-12-18T00:26:33;-3.70;99.90
9881;DHT22;4979;51.014;6.678;2022-12-18T00:29:11;-3.70;99.90
9881;DHT22;4979;51.014;6.678;2022-12-18T00:31:40;-3.70;99.90
9881;DHT22;4979;51.014;6.678;2022-12-18T00:34:05;-3.70;99.90
9881;DHT22;4979;51.014;6.678;2022-12-18T00:36:33;-3.70;99.90
9881;DHT22;4979;51.014;6.678;2022-12-18T00:39:00;-3.70;99.90
9881;DHT22;4979;51.014;6.678;2022-12-18T00:41:27;-3.60;99.90
9881;DHT22;4979;51.014;6.678;2022-12-18T00:44:15;-3.60;99.90
9881;DHT22;4979;51.014;6.678;2022-12-18T00:46:42;-3.60;99.90
9881;DHT22;4979;51.014;6.678;2022-12-18T00:49:08;-3.60;99.90
9881;DHT22;4979;51.014;6.678;2022-12-18T00:51:34;-3.60;99.90
9881;DHT22;4979;51.014;6.678;2022-12-18T00:54:00;-3.60;99.90
9881;DHT22;4979;51.014;6.678;2022-12-18T00:56:26;-3.60;99.90
9881;DHT22;4979;51.014;6.678;2022-12-18T00:58:51;-3.70;99.90
9881;DHT22;4979;51.014;6.678;2022-12-18T01:01:17;-3.70;99.90
9881;DHT22;4979;51.014;6.678;2022-12-18T01:03:43;-3.80;99.90
9881;DHT22;4979;51.014;6.678;2022-12-18T01:06:11;-3.90;99.90
9881;DHT22;4979;51.014;6.678;2022-12-18T01:08:38;-3.90;99.90
9881;DHT22;4979;51.014;6.678;2022-12-18T01:11:09;-3.90;99.90
9881;DHT22;4979;51.014;6.678;2022-12-18T01:13:35;-3.90;99.90
9881;DHT22;4979;51.014;6.678;2022-12-18T01:16:00;-3.90;99.90
9881;DHT22;4979;51.014;6.678;2022-12-18T01:18:26;-3.80;99.90
9881;DHT22;4979;51.014;6.678;2022-12-18T01:20:51;-3.90;99.90
9881;DHT22;4979;51.014;6.678;2022-12-18T01:23:17;-3.90;99.90
9881;DHT22;4979;51.014;6.678;2022-12-18T01:25:42;-3.80;99.90
9881;DHT22;4979;51.014;6.678;2022-12-18T01:28:08;-3.80;99.90
9881;DHT22;4979;51.014;6.678;2022-12-18T01:30:33;-3.80;99.90
9881;DHT22;4979;51.014;6.678;2022-12-18T01:32:59;-3.90;99.90
9881;DHT22;4979;51.014;6.678;2022-12-18T01:35:24;-3.90;99.90
9881;DHT22;4979;51.014;6.678;2022-12-18T01:37:54;-3.80;99.90
9881;DHT22;4979;51.014;6.678;2022-12-18T01:40:19;-3.80;99.90
9881;DHT22;4979;51.014;6.678;2022-12-18T01:42:50;-3.80;99.90
9881;DHT22;4979;51.014;6.678;2022-12-18T01:45:29;-3.80;99.90
9881;DHT22;4979;51.014;6.678;2022-12-18T01:48:00;-3.90;99.90
9881;DHT22;4979;51.014;6.678;2022-12-18T01:50:32;-3.80;99.90
9881;DHT22;4979;51.014;6.678;2022-12-18T01:53:01;-3.80;99.90
9881;DHT22;4979;51.014;6.678;2022-12-18T01:55:35;-3.80;99.90
9881;DHT22;4979;51.014;6.678;2022-12-18T01:58:02;-3.80;99.90
9881;DHT22;4979;51.014;6.678;2022-12-18T02:00:28;-3.70;99.90
9881;DHT22;4979;51.014;6.678;2022-12-18T02:02:54;-3.70;99.90
9881;DHT22;4979;51.014;6.678;2022-12-18T02:05:36;-3.70;99.90
9881;DHT22;4979;51.014;6.678;2022-12-18T02:08:09;-3.70;99.90
9881;DHT22;4979;51.014;6.678;2022-12-18T02:13:49;-3.80;99.90
9881;DHT22;4979;51.014;6.678;2022-12-18T02:16:52;-3.80;99.90
9881;DHT22;4979;51.014;6.678;2022-12-18T02:27:34;-3.80;99.90
9881;DHT22;4979;51.014;6.678;2022-12-18T02:30:03;-3.80;99.90
9881;DHT22;4979;51.014;6.678;2022-12-18T02:32:49;-3.80;99.90
9881;DHT22;4979;51.014;6.678;2022-12-18T02:35:20;-3.80;99.90
9881;DHT22;4979;51.014;6.678;2022-12-18T02:37:47;-3.80;99.90
9881;DHT22;4979;51.014;6.678;2022-12-18T02:40:14;-3.80;99.90
9881;DHT22;4979;51.014;6.678;2022-12-18T02:42:41;-3.90;99.90
9881;DHT22;4979;51.014;6.678;2022-12-18T02:45:07;-3.90;99.90
9881;DHT22;4979;51.014;6.678;2022-12-18T02:47:40;-3.90;99.90
9881;DHT22;4979;51.014;6.678;2022-12-18T02:56:03;-3.90;99.90
9881;DHT22;4979;51.014;6.678;2022-12-18T02:58:46;-4.00;99.90
9881;DHT22;4979;51.014;6.678;2022-12-18T03:01:28;-4.00;99.90
9881;DHT22;4979;51.014;6.678;2022-12-18T03:04:01;-4.00;99.90
9881;DHT22;4979;51.014;6.678;2022-12-18T03:06:34;-4.00;99.90
9881;DHT22;4979;51.014;6.678;2022-12-18T03:09:06;-4.00;99.90
9881;DHT22;4979;51.014;6.678;2022-12-18T03:11:34;-4.00;99.90
9881;DHT22;4979;51.014;6.678;2022-12-18T03:14:21;-4.00;99.90
9881;DHT22;4979;51.014;6.678;2022-12-18T03:16:54;-4.10;99.90
9881;DHT22;4979;51.014;6.678;2022-12-18T03:19:27;-4.10;99.90
9881;DHT22;4979;51.014;6.678;2022-12-18T03:21:55;-4.00;99.90
9881;DHT22;4979;51.014;6.678;2022-12-18T03:24:23;-4.10;99.90
9881;DHT22;4979;51.014;6.678;2022-12-18T03:26:52;-4.10;99.90
9881;DHT22;4979;51.014;6.678;2022-12-18T03:29:24;-4.10;99.90
9881;DHT22;4979;51.014;6.678;2022-12-18T03:32:02;-4.10;99.90
9881;DHT22;4979;51.014;6.678;2022-12-18T03:34:32;-4.10;99.90
9881;DHT22;4979;51.014;6.678;2022-12-18T03:36:58;-4.10;99.90
9881;DHT22;4979;51.014;6.678;2022-12-18T03:39:24;-4.10;99.90
9881;DHT22;4979;51.014;6.678;2022-12-18T03:44:34;-4.20;99.90
9881;DHT22;4979;51.014;6.678;2022-12-18T03:47:10;-4.20;99.90
9881;DHT22;4979;51.014;6.678;2022-12-18T03:52:41;-4.20;99.90
9881;DHT22;4979;51.014;6.678;2022-12-18T03:55:10;-4.20;99.90
9881;DHT22;4979;51.014;6.678;2022-12-18T03:57:37;-4.20;99.90
9881;DHT22;4979;51.014;6.678;2022-12-18T04:00:09;-4.10;99.90
9881;DHT22;4979;51.014;6.678;2022-12-18T04:02:38;-4.10;99.90
9881;DHT22;4979;51.014;6.678;2022-12-18T04:05:07;-4.10;99.90
9881;DHT22;4979;51.014;6.678;2022-12-18T04:07:34;-4.00;99.90
9881;DHT22;4979;51.014;6.678;2022-12-18T04:10:02;-4.10;99.90
9881;DHT22;4979;51.014;6.678;2022-12-18T04:12:29;-4.20;99.90
9881;DHT22;4979;51.014;6.678;2022-12-18T04:14:55;-4.10;99.90
9881;DHT22;4979;51.014;6.678;2022-12-18T04:17:21;-4.10;99.90
9881;DHT22;4979;51.014;6.678;2022-12-18T04:19:47;-4.10;99.90
9881;DHT22;4979;51.014;6.678;2022-12-18T04:22:13;-4.20;99.90
9881;DHT22;4979;51.014;6.678;2022-12-18T04:24:38;-4.20;99.90
9881;DHT22;4979;51.014;6.678;2022-12-18T04:27:04;-4.30;99.90
9881;DHT22;4979;51.014;6.678;2022-12-18T04:29:30;-4.30;99.90
9881;DHT22;4979;51.014;6.678;2022-12-18T04:31:55;-4.30;99.90
9881;DHT22;4979;51.014;6.678;2022-12-18T04:34:21;-4.30;99.90
9881;DHT22;4979;51.014;6.678;2022-12-18T04:36:47;-4.20;99.90
9881;DHT22;4979;51.014;6.678;2022-12-18T04:39:13;-4.20;99.90
9881;DHT22;4979;51.014;6.678;2022-12-18T04:41:39;-4.30;99.90
9881;DHT22;4979;51.014;6.678;2022-12-18T04:44:04;-4.20;99.90
9881;DHT22;4979;51.014;6.678;2022-12-18T04:46:30;-4.20;99.90
9881;DHT22;4979;51.014;6.678;2022-12-18T04:48:56;-4.10;99.90
9881;DHT22;4979;51.014;6.678;2022-12-18T04:51:21;-4.10;99.90
9881;DHT22;4979;51.014;6.678;2022-12-18T04:53:47;-4.20;99.90
9881;DHT22;4979;51.014;6.678;2022-12-18T04:56:14;-4.20;99.90
9881;DHT22;4979;51.014;6.678;2022-12-18T04:58:41;-4.20;99.90
9881;DHT22;4979;51.014;6.678;2022-12-18T05:01:08;-4.10;99.90
9881;DHT22;4979;51.014;6.678;2022-12-18T05:03:35;-4.10;99.90
9881;DHT22;4979;51.014;6.678;2022-12-18T05:06:01;-4.10;99.90
9881;DHT22;4979;51.014;6.678;2022-12-18T05:08:27;-4.10;99.90
9881;DHT22;4979;51.014;6.678;2022-12-18T05:11:07;-4.10;99.90
9881;DHT22;4979;51.014;6.678;2022-12-18T05:13:34;-4.10;99.90
9881;DHT22;4979;51.014;6.678;2022-12-18T05:16:00;-4.10;99.90
9881;DHT22;4979;51.014;6.678;2022-12-18T05:18:26;-4.20;99.90
9881;DHT22;4979;51.014;6.678;2022-12-18T05:20:52;-4.10;99.90
9881;DHT22;4979;51.014;6.678;2022-12-18T05:23:19;-4.20;99.90
9881;DHT22;4979;51.014;6.678;2022-12-18T05:25:56;-4.20;99.90
9881;DHT22;4979;51.014;6.678;2022-12-18T05:28:23;-4.10;99.90
9881;DHT22;4979;51.014;6.678;2022-12-18T05:30:50;-4.20;99.90
9881;DHT22;4979;51.014;6.678;2022-12-18T05:33:16;-4.10;99.90
9881;DHT22;4979;51.014;6.678;2022-12-18T05:35:41;-4.20;99.90
9881;DHT22;4979;51.014;6.678;2022-12-18T05:38:07;-4.20;99.90
9881;DHT22;4979;51.014;6.678;2022-12-18T05:40:33;-4.10;99.90
9881;DHT22;4979;51.014;6.678;2022-12-18T05:42:58;-4.30;99.90
9881;DHT22;4979;51.014;6.678;2022-12-18T05:45:24;-4.30;99.90
9881;DHT22;4979;51.014;6.678;2022-12-18T05:47:49;-4.30;99.90
9881;DHT22;4979;51.014;6.678;2022-12-18T05:50:15;-4.30;99.90
9881;DHT22;4979;51.014;6.678;2022-12-18T05:52:40;-4.20;99.90
9881;DHT22;4979;51.014;6.678;2022-12-18T05:55:06;-4.30;99.90
9881;DHT22;4979;51.014;6.678;2022-12-18T05:57:32;-4.30;99.90
9881;DHT22;4979;51.014;6.678;2022-12-18T05:59:57;-4.30;99.90
9881;DHT22;4979;51.014;6.678;2022-12-18T06:02:23;-4.30;99.90
9881;DHT22;4979;51.014;6.678;2022-12-18T06:04:48;-4.30;99.90
9881;DHT22;4979;51.014;6.678;2022-12-18T06:07:14;-4.30;99.90
9881;DHT22;4979;51.014;6.678;2022-12-18T06:09:40;-4.30;99.90
9881;DHT22;4979;51.014;6.678;2022-12-18T06:12:05;-4.30;99.90
9881;DHT22;4979;51.014;6.678;2022-12-18T06:14:31;-4.30;99.90
9881;DHT22;4979;51.014;6.678;2022-12-18T06:16:56;-4.30;99.90
9881;DHT22;4979;51.014;6.678;2022-12-18T06:19:22;-4.30;99.90
9881;DHT22;4979;51.014;6.678;2022-12-18T06:21:48;-4.30;99.90
9881;DHT22;4979;51.014;6.678;2022-12-18T06:24:14;-4.30;99.90
9881;DHT22;4979;51.014;6.678;2022-12-18T06:26:40;-4.30;99.90
9881;DHT22;4979;51.014;6.678;2022-12-18T06:29:05;-4.20;99.90
9881;DHT22;4979;51.014;6.678;2022-12-18T06:31:31;-4.30;99.90
9881;DHT22;4979;51.014;6.678;2022-12-18T06:33:57;-4.30;99.90
9881;DHT22;4979;51.014;6.678;2022-12-18T06:36:22;-4.20;99.90
9881;DHT22;4979;51.014;6.678;2022-12-18T06:38:48;-4.20;99.90
9881;DHT22;4979;51.014;6.678;2022-12-18T06:41:16;-4.40;99.90
9881;DHT22;4979;51.014;6.678;2022-12-18T06:43:42;-4.30;99.90
9881;DHT22;4979;51.014;6.678;2022-12-18T06:46:08;-4.40;99.90
9881;DHT22;4979;51.014;6.678;2022-12-18T06:48:34;-4.40;99.90
9881;DHT22;4979;51.014;6.678;2022-12-18T06:51:00;-4.40;99.90
9881;DHT22;4979;51.014;6.678;2022-12-18T06:53:26;-4.40;99.90
9881;DHT22;4979;51.014;6.678;2022-12-18T06:55:52;-4.40;99.90
9881;DHT22;4979;51.014;6.678;2022-12-18T06:58:18;-4.40;99.90
9881;DHT22;4979;51.014;6.678;2022-12-18T07:00:43;-4.40;99.90
9881;DHT22;4979;51.014;6.678;2022-12-18T07:03:10;-4.30;99.90
9881;DHT22;4979;51.014;6.678;2022-12-18T07:05:39;-4.40;99.90
9881;DHT22;4979;51.014;6.678;2022-12-18T07:08:06;-4.40;99.90
9881;DHT22;4979;51.014;6.678;2022-12-18T07:10:31;-4.40;99.90
9881;DHT22;4979;51.014;6.678;2022-12-18T07:15:23;-4.40;99.90
9881;DHT22;4979;51.014;6.678;2022-12-18T07:17:48;-4.30;99.90
9881;DHT22;4979;51.014;6.678;2022-12-18T07:20:14;-4.30;99.90
9881;DHT22;4979;51.014;6.678;2022-12-18T07:22:39;-4.30;99.90
9881;DHT22;4979;51.014;6.678;2022-12-18T07:25:05;-4.30;99.90
9881;DHT22;4979;51.014;6.678;2022-12-18T07:27:31;-4.20;99.90
9881;DHT22;4979;51.014;6.678;2022-12-18T07:29:57;-4.20;99.90
9881;DHT22;4979;51.014;6.678;2022-12-18T07:32:22;-4.20;99.90
9881;DHT22;4979;51.014;6.678;2022-12-18T07:34:48;-4.10;99.90
9881;DHT22;4979;51.014;6.678;2022-12-18T07:37:13;-4.20;99.90
9881;DHT22;4979;51.014;6.678;2022-12-18T07:39:39;-4.10;99.90
9881;DHT22;4979;51.014;6.678;2022-12-18T07:42:07;-4.10;99.90
9881;DHT22;4979;51.014;6.678;2022-12-18T07:44:51;-4.20;99.90
9881;DHT22;4979;51.014;6.678;2022-12-18T07:47:17;-4.10;99.90
9881;DHT22;4979;51.014;6.678;2022-12-18T07:49:42;-4.10;99.90
9881;DHT22;4979;51.014;6.678;2022-12-18T07:52:08;-4.10;99.90
9881;DHT22;4979;51.014;6.678;2022-12-18T07:54:34;-4.10;99.90
9881;DHT22;4979;51.014;6.678;2022-12-18T07:57:00;-4.10;99.90
9881;DHT22;4979;51.014;6.678;2022-12-18T07:59:25;-4.10;99.90
9881;DHT22;4979;51.014;6.678;2022-12-18T08:01:52;-4.10;99.90
9881;DHT22;4979;51.014;6.678;2022-12-18T08:04:17;-4.10;99.90
9881;DHT22;4979;51.014;6.678;2022-12-18T08:06:43;-4.10;99.90
9881;DHT22;4979;51.014;6.678;2022-12-18T08:09:10;-4.10;99.90
9881;DHT22;4979;51.014;6.678;2022-12-18T08:11:35;-4.10;99.90
9881;DHT22;4979;51.014;6.678;2022-12-18T08:14:01;-4.00;99.90
9881;DHT22;4979;51.014;6.678;2022-12-18T08:16:27;-4.00;99.90
9881;DHT22;4979;51.014;6.678;2022-12-18T08:18:53;-3.90;99.90
9881;DHT22;4979;51.014;6.678;2022-12-18T08:21:22;-3.90;99.90
9881;DHT22;4979;51.014;6.678;2022-12-18T08:23:49;-3.80;99.90
9881;DHT22;4979;51.014;6.678;2022-12-18T08:26:15;-3.70;99.90
9881;DHT22;4979;51.014;6.678;2022-12-18T08:28:41;-3.50;99.90
9881;DHT22;4979;51.014;6.678;2022-12-18T08:31:07;-3.60;99.90
9881;DHT22;4979;51.014;6.678;2022-12-18T08:33:33;-3.60;99.90
9881;DHT22;4979;51.014;6.678;2022-12-18T08:35:59;-3.50;99.90
9881;DHT22;4979;51.014;6.678;2022-12-18T08:38:25;-3.50;99.90
9881;DHT22;4979;51.014;6.678;2022-12-18T08:41:07;-3.40;99.90
9881;DHT22;4979;51.014;6.678;2022-12-18T08:43:33;-3.30;99.90
9881;DHT22;4979;51.014;6.678;2022-12-18T08:46:19;-3.30;99.90
9881;DHT22;4979;51.014;6.678;2022-12-18T08:48:45;-3.30;99.90
9881;DHT22;4979;51.014;6.678;2022-12-18T08:51:11;-3.20;99.90
9881;DHT22;4979;51.014;6.678;2022-12-18T08:53:37;-3.10;99.90
9881;DHT22;4979;51.014;6.678;2022-12-18T08:56:03;-3.10;99.90
9881;DHT22;4979;51.014;6.678;2022-12-18T08:58:29;-3.00;99.90
9881;DHT22;4979;51.014;6.678;2022-12-18T09:01:02;-3.00;99.90
9881;DHT22;4979;51.014;6.678;2022-12-18T09:03:28;-2.90;99.90
9881;DHT22;4979;51.014;6.678;2022-12-18T09:05:53;-2.90;99.90
9881;DHT22;4979;51.014;6.678;2022-12-18T09:08:19;-2.90;99.90
9881;DHT22;4979;51.014;6.678;2022-12-18T09:10:46;-2.90;99.90
9881;DHT22;4979;51.014;6.678;2022-12-18T09:13:13;-2.80;99.90
9881;DHT22;4979;51.014;6.678;2022-12-18T09:15:46;-2.80;99.90
9881;DHT22;4979;51.014;6.678;2022-12-18T09:18:14;-2.80;99.90
9881;DHT22;4979;51.014;6.678;2022-12-18T09:20:39;-2.80;99.90
9881;DHT22;4979;51.014;6.678;2022-12-18T09:23:05;-2.60;99.90
9881;DHT22;4979;51.014;6.678;2022-12-18T09:25:32;-2.60;99.90
9881;DHT22;4979;51.014;6.678;2022-12-18T09:28:14;-2.40;99.90
9881;DHT22;4979;51.014;6.678;2022-12-18T09:30:42;-2.40;99.90
9881;DHT22;4979;51.014;6.678;2022-12-18T09:33:08;-2.40;99.90
9881;DHT22;4979;51.014;6.678;2022-12-18T09:35:37;-2.30;99.90
9881;DHT22;4979;51.014;6.678;2022-12-18T09:38:04;-2.30;99.90
9881;DHT22;4979;51.014;6.678;2022-12-18T09:40:35;-2.20;99.90
9881;DHT22;4979;51.014;6.678;2022-12-18T09:43:04;-2.20;99.90
9881;DHT22;4979;51.014;6.678;2022-12-18T09:45:40;-2.20;99.90
9881;DHT22;4979;51.014;6.678;2022-12-18T09:48:14;-2.20;99.90
9881;DHT22;4979;51.014;6.678;2022-12-18T09:50:41;-2.10;99.90
9881;DHT22;4979;51.014;6.678;2022-12-18T09:53:21;-2.20;99.90
9881;DHT22;4979;51.014;6.678;2022-12-18T09:55:49;-2.10;99.90
9881;DHT22;4979;51.014;6.678;2022-12-18T09:58:32;-2.00;99.90
9881;DHT22;4979;51.014;6.678;2022-12-18T10:00:58;-2.00;99.90
9881;DHT22;4979;51.014;6.678;2022-12-18T10:03:24;-1.90;99.90
9881;DHT22;4979;51.014;6.678;2022-12-18T10:09:07;-1.80;99.90
9881;DHT22;4979;51.014;6.678;2022-12-18T10:14:30;-1.70;99.90
9881;DHT22;4979;51.014;6.678;2022-12-18T10:19:54;-1.60;99.90
9881;DHT22;4979;51.014;6.678;2022-12-18T10:25:19;-1.40;99.90
9881;DHT22;4979;51.014;6.678;2022-12-18T10:27:46;-1.40;99.90
9881;DHT22;4979;51.014;6.678;2022-12-18T10:30:14;-1.40;99.90
9881;DHT22;4979;51.014;6.678;2022-12-18T10:32:40;-1.40;99.90
9881;DHT22;4979;51.014;6.678;2022-12-18T10:35:15;-1.30;99.90
9881;DHT22;4979;51.014;6.678;2022-12-18T10:38:00;-1.20;99.90
9881;DHT22;4979;51.014;6.678;2022-12-18T10:40:26;-1.10;99.90
9881;DHT22;4979;51.014;6.678;2022-12-18T10:43:25;-1.10;99.90
9881;DHT22;4979;51.014;6.678;2022-12-18T10:51:05;-1.10;99.90
9881;DHT22;4979;51.014;6.678;2022-12-18T10:53:33;-1.00;99.90
9881;DHT22;4979;51.014;6.678;2022-12-18T10:56:00;-1.00;99.90
9881;DHT22;4979;51.014;6.678;2022-12-18T10:58:29;-1.00;99.90
9881;DHT22;4979;51.014;6.678;2022-12-18T11:01:15;-0.90;99.90
9881;DHT22;4979;51.014;6.678;2022-12-18T11:03:43;-0.80;99.90
9881;DHT22;4979;51.014;6.678;2022-12-18T11:06:15;-0.80;99.90
9881;DHT22;4979;51.014;6.678;2022-12-18T11:08:43;-0.80;99.90
9881;DHT22;4979;51.014;6.678;2022-12-18T11:11:20;-0.80;99.90
9881;DHT22;4979;51.014;6.678;2022-12-18T11:16:20;-0.90;99.90
9881;DHT22;4979;51.014;6.678;2022-12-18T11:18:46;-0.90;99.90
9881;DHT22;4979;51.014;6.678;2022-12-18T11:21:12;-0.90;99.90
9881;DHT22;4979;51.014;6.678;2022-12-18T11:23:48;-0.80;99.90
9881;DHT22;4979;51.014;6.678;2022-12-18T11:26:14;-0.80;99.90
9881;DHT22;4979;51.014;6.678;2022-12-18T11:28:51;1.40;99.90
9881;DHT22;4979;51.014;6.678;2022-12-18T11:31:26;-0.80;99.90
9881;DHT22;4979;51.014;6.678;2022-12-18T11:34:13;-0.80;99.90
9881;DHT22;4979;51.014;6.678;2022-12-18T11:36:45;-0.70;99.90
9881;DHT22;4979;51.014;6.678;2022-12-18T11:39:19;-0.60;99.90
9881;DHT22;4979;51.014;6.678;2022-12-18T11:41:53;-0.60;99.90
9881;DHT22;4979;51.014;6.678;2022-12-18T11:44:48;-0.60;99.90
9881;DHT22;4979;51.014;6.678;2022-12-18T11:47:38;-0.50;99.90
9881;DHT22;4979;51.014;6.678;2022-12-18T11:50:17;-0.50;99.90
9881;DHT22;4979;51.014;6.678;2022-12-18T11:52:44;-0.60;99.90
9881;DHT22;4979;51.014;6.678;2022-12-18T11:55:37;-0.60;99.90
9881;DHT22;4979;51.014;6.678;2022-12-18T11:58:28;-0.60;99.90
9881;DHT22;4979;51.014;6.678;2022-12-18T12:01:06;-0.50;99.90
9881;DHT22;4979;51.014;6.678;2022-12-18T12:06:43;-0.40;99.90
9881;DHT22;4979;51.014;6.678;2022-12-18T12:20:15;-0.50;99.90
9881;DHT22;4979;51.014;6.678;2022-12-18T12:31:37;-0.40;99.90
9881;DHT22;4979;51.014;6.678;2022-12-18T12:34:19;-0.40;99.90
9881;DHT22;4979;51.014;6.678;2022-12-18T12:37:01;-0.40;99.90
9881;DHT22;4979;51.014;6.678;2022-12-18T12:39:34;-0.50;99.90
9881;DHT22;4979;51.014;6.678;2022-12-18T12:42:02;-0.50;99.90
9881;DHT22;4979;51.014;6.678;2022-12-18T12:44:55;-0.40;99.90
9881;DHT22;4979;51.014;6.678;2022-12-18T12:47:34;-0.40;99.90
9881;DHT22;4979;51.014;6.678;2022-12-18T12:50:06;-0.30;99.90
9881;DHT22;4979;51.014;6.678;2022-12-18T12:52:44;-0.40;99.90
9881;DHT22;4979;51.014;6.678;2022-12-18T12:55:37;-0.30;99.90
9881;DHT22;4979;51.014;6.678;2022-12-18T13:00:44;-0.30;99.90
9881;DHT22;4979;51.014;6.678;2022-12-18T13:03:48;-0.30;99.90
9881;DHT22;4979;51.014;6.678;2022-12-18T13:06:35;-0.30;99.90
9881;DHT22;4979;51.014;6.678;2022-12-18T13:09:03;-0.30;99.90
9881;DHT22;4979;51.014;6.678;2022-12-18T13:11:38;-0.30;99.90
9881;DHT22;4979;51.014;6.678;2022-12-18T13:14:34;-0.30;99.90
9881;DHT22;4979;51.014;6.678;2022-12-18T13:17:26;-0.30;99.90
9881;DHT22;4979;51.014;6.678;2022-12-18T13:20:10;-0.30;99.90
9881;DHT22;4979;51.014;6.678;2022-12-18T13:22:38;-0.20;99.90
9881;DHT22;4979;51.014;6.678;2022-12-18T13:25:31;-0.30;99.90
9881;DHT22;4979;51.014;6.678;2022-12-18T13:28:12;-0.30;99.90
9881;DHT22;4979;51.014;6.678;2022-12-18T13:30:57;-0.30;99.90
9881;DHT22;4979;51.014;6.678;2022-12-18T13:36:15;-0.40;99.90
9881;DHT22;4979;51.014;6.678;2022-12-18T13:38:43;-0.30;99.90
9881;DHT22;4979;51.014;6.678;2022-12-18T13:43:45;-0.30;99.90
9881;DHT22;4979;51.014;6.678;2022-12-18T13:46:42;-0.30;99.90
9881;DHT22;4979;51.014;6.678;2022-12-18T13:49:25;-0.30;99.90
9881;DHT22;4979;51.014;6.678;2022-12-18T13:51:53;-0.30;99.90
9881;DHT22;4979;51.014;6.678;2022-12-18T13:54:35;-0.30;99.90
9881;DHT22;4979;51.014;6.678;2022-12-18T13:57:02;-0.40;99.90
9881;DHT22;4979;51.014;6.678;2022-12-18T13:59:38;-0.30;99.90
9881;DHT22;4979;51.014;6.678;2022-12-18T14:02:14;-0.40;99.90
9881;DHT22;4979;51.014;6.678;2022-12-18T14:04:39;-0.40;99.90
9881;DHT22;4979;51.014;6.678;2022-12-18T14:07:10;-0.40;99.90
9881;DHT22;4979;51.014;6.678;2022-12-18T14:09:47;-0.40;99.90
9881;DHT22;4979;51.014;6.678;2022-12-18T14:12:33;-0.50;99.90
9881;DHT22;4979;51.014;6.678;2022-12-18T14:15:39;-0.50;99.90
9881;DHT22;4979;51.014;6.678;2022-12-18T14:20:49;-0.50;99.90
9881;DHT22;4979;51.014;6.678;2022-12-18T14:23:44;-0.50;99.90
9881;DHT22;4979;51.014;6.678;2022-12-18T14:26:27;-0.50;99.90
9881;DHT22;4979;51.014;6.678;2022-12-18T14:28:55;-0.60;99.90
9881;DHT22;4979;51.014;6.678;2022-12-18T14:31:24;-0.60;99.90
9881;DHT22;4979;51.014;6.678;2022-12-18T14:33:53;-0.50;99.90
9881;DHT22;4979;51.014;6.678;2022-12-18T14:36:22;-0.50;99.90
9881;DHT22;4979;51.014;6.678;2022-12-18T14:38:50;-0.60;99.90
9881;DHT22;4979;51.014;6.678;2022-12-18T14:41:18;-0.60;99.90
9881;DHT22;4979;51.014;6.678;2022-12-18T14:43:46;-0.50;99.90
9881;DHT22;4979;51.014;6.678;2022-12-18T14:46:44;-0.60;99.90
9881;DHT22;4979;51.014;6.678;2022-12-18T14:49:21;-0.60;99.90
9881;DHT22;4979;51.014;6.678;2022-12-18T14:51:50;-0.60;99.90
9881;DHT22;4979;51.014;6.678;2022-12-18T14:54:19;-0.60;99.90
9881;DHT22;4979;51.014;6.678;2022-12-18T14:57:03;-0.60;99.90
9881;DHT22;4979;51.014;6.678;2022-12-18T14:59:30;-0.60;99.90
9881;DHT22;4979;51.014;6.678;2022-12-18T15:04:46;-0.70;99.90
9881;DHT22;4979;51.014;6.678;2022-12-18T15:07:18;-0.60;99.90
9881;DHT22;4979;51.014;6.678;2022-12-18T15:10:03;-0.60;99.90
9881;DHT22;4979;51.014;6.678;2022-12-18T15:12:36;-0.70;99.90
9881;DHT22;4979;51.014;6.678;2022-12-18T15:15:02;-0.80;99.90
9881;DHT22;4979;51.014;6.678;2022-12-18T15:17:28;-0.80;99.90
9881;DHT22;4979;51.014;6.678;2022-12-18T15:20:00;-0.80;99.90
9881;DHT22;4979;51.014;6.678;2022-12-18T15:22:29;-0.70;99.90
9881;DHT22;4979;51.014;6.678;2022-12-18T15:24:56;-0.80;99.90
9881;DHT22;4979;51.014;6.678;2022-12-18T15:27:33;-0.80;99.90
9881;DHT22;4979;51.014;6.678;2022-12-18T15:30:16;-0.80;99.90
9881;DHT22;4979;51.014;6.678;2022-12-18T15:32:42;-0.80;99.90
9881;DHT22;4979;51.014;6.678;2022-12-18T15:37:37;-0.90;99.90
9881;DHT22;4979;51.014;6.678;2022-12-18T15:40:03;-0.90;99.90
9881;DHT22;4979;51.014;6.678;2022-12-18T15:42:29;-0.40;99.90
9881;DHT22;4979;51.014;6.678;2022-12-18T15:45:13;-0.90;99.90
9881;DHT22;4979;51.014;6.678;2022-12-18T15:47:40;-1.00;99.90
9881;DHT22;4979;51.014;6.678;2022-12-18T15:50:07;-1.00;99.90
9881;DHT22;4979;51.014;6.678;2022-12-18T15:52:41;-1.00;99.90
9881;DHT22;4979;51.014;6.678;2022-12-18T15:55:21;-1.00;99.90
9881;DHT22;4979;51.014;6.678;2022-12-18T15:58:06;-1.00;99.90
9881;DHT22;4979;51.014;6.678;2022-12-18T16:00:34;-1.20;99.90
9881;DHT22;4979;51.014;6.678;2022-12-18T16:03:00;-1.10;99.90
9881;DHT22;4979;51.014;6.678;2022-12-18T16:05:27;-1.10;99.90
9881;DHT22;4979;51.014;6.678;2022-12-18T16:07:53;-1.20;99.90
9881;DHT22;4979;51.014;6.678;2022-12-18T16:10:18;-1.20;99.90
9881;DHT22;4979;51.014;6.678;2022-12-18T16:12:45;-1.20;99.90
9881;DHT22;4979;51.014;6.678;2022-12-18T16:15:13;-1.10;99.90
9881;DHT22;4979;51.014;6.678;2022-12-18T16:17:43;-1.20;99.90
9881;DHT22;4979;51.014;6.678;2022-12-18T16:20:13;-1.10;99.90
9881;DHT22;4979;51.014;6.678;2022-12-18T16:22:40;-1.10;99.90
9881;DHT22;4979;51.014;6.678;2022-12-18T16:25:08;-1.10;99.90
9881;DHT22;4979;51.014;6.678;2022-12-18T16:27:36;2.00;99.90
9881;DHT22;4979;51.014;6.678;2022-12-18T16:30:02;-1.10;99.90
9881;DHT22;4979;51.014;6.678;2022-12-18T16:32:27;-1.10;99.90
9881;DHT22;4979;51.014;6.678;2022-12-18T16:34:53;-1.10;99.90
9881;DHT22;4979;51.014;6.678;2022-12-18T16:37:18;-1.10;99.90
9881;DHT22;4979;51.014;6.678;2022-12-18T16:39:44;-1.10;99.90
9881;DHT22;4979;51.014;6.678;2022-12-18T16:42:18;-1.10;99.90
9881;DHT22;4979;51.014;6.678;2022-12-18T16:44:44;-1.20;99.90
9881;DHT22;4979;51.014;6.678;2022-12-18T16:47:11;-1.10;99.90
9881;DHT22;4979;51.014;6.678;2022-12-18T16:49:36;-1.10;99.90
9881;DHT22;4979;51.014;6.678;2022-12-18T16:52:03;-1.20;99.90
9881;DHT22;4979;51.014;6.678;2022-12-18T16:54:29;-1.20;99.90
9881;DHT22;4979;51.014;6.678;2022-12-18T16:56:55;-1.20;99.90
9881;DHT22;4979;51.014;6.678;2022-12-18T16:59:20;-1.20;99.90
9881;DHT22;4979;51.014;6.678;2022-12-18T17:01:46;-1.20;99.90
9881;DHT22;4979;51.014;6.678;2022-12-18T17:04:12;-1.20;99.90
9881;DHT22;4979;51.014;6.678;2022-12-18T17:06:43;-1.20;99.90
9881;DHT22;4979;51.014;6.678;2022-12-18T17:09:13;-1.20;99.90
9881;DHT22;4979;51.014;6.678;2022-12-18T17:11:41;-1.30;99.90
9881;DHT22;4979;51.014;6.678;2022-12-18T17:14:13;-1.20;99.90
9881;DHT22;4979;51.014;6.678;2022-12-18T17:16:40;-1.20;99.90
9881;DHT22;4979;51.014;6.678;2022-12-18T17:19:06;-1.20;99.90
9881;DHT22;4979;51.014;6.678;2022-12-18T17:21:32;-1.20;99.90
9881;DHT22;4979;51.014;6.678;2022-12-18T17:24:01;-1.20;99.90
9881;DHT22;4979;51.014;6.678;2022-12-18T17:26:27;-1.20;99.90
9881;DHT22;4979;51.014;6.678;2022-12-18T17:28:55;-1.20;99.90
9881;DHT22;4979;51.014;6.678;2022-12-18T17:31:24;-1.20;99.90
9881;DHT22;4979;51.014;6.678;2022-12-18T17:33:50;-1.20;99.90
9881;DHT22;4979;51.014;6.678;2022-12-18T17:36:16;-1.20;99.90
9881;DHT22;4979;51.014;6.678;2022-12-18T17:38:42;-1.20;99.90
9881;DHT22;4979;51.014;6.678;2022-12-18T17:41:09;-1.30;99.90
9881;DHT22;4979;51.014;6.678;2022-12-18T17:43:35;-1.30;99.90
9881;DHT22;4979;51.014;6.678;2022-12-18T17:46:05;-1.30;99.90